Riverside, CA (92503)

4:18 PM PDT on September 30, 2014 (GMT -0700)
Arlington Heights | Change Station
CLOSE
Current Station
Personal Weather Station
Location: Riverside, CA
Elevation: 788 ft
Nearby Weather Stations
Active Advisory: Heat Advisory

Elev 788 ft 33.89 °N, 117.47 °W | Updated 15 minutes ago

Clear
Clear
88.1 °F
Feels Like 88 °F
N
4.0
Wind Variable Wind from WNW
Gusts 11.0 mph

Today
High -- | Low -- °F
--% Chance of Precip.
Yesterday
High -- | Low -- °F
Precip. -- in
6:43 AM 6:35 PM
Waxing Crescent, 41% visible
Pressure 29.71 in
Visibility 10.0 miles
Clouds Clear
Heat Index 88 °F
Dew Point 59 °F
Humidity 38%
Rainfall -999.00 in
Snow Depth 1 in , 0 in , 0 in
UV 3 out of 12
Pollen 5.30 out of 12
Ozone Moderate
PM2.5 Moderate
Flu Activity Not available.
METAR KRAL 302253Z AUTO 27010KT 10SM CLR 31/07 A2976 RMK AO2 SLP061 T03110072

More Conditions Fewer Conditions

Pressure 29.71 in
Visibility 10.0 miles
Clouds Clear
Heat Index 88 °F
Dew Point 59 °F
Humidity 38%
Rainfall -999.00 in
Snow Depth 1 in , 0 in , 0 in
UV 3 out of 12
Pollen 5.30 out of 12
Ozone Moderate
PM2.5 Moderate
Flu Activity Not available.
METAR KRAL 302253Z AUTO 27010KT 10SM CLR 31/07 A2976 RMK AO2 SLP061 T03110072

More Conditions Fewer Conditions

10-Day Weather Forecast

Almanac

Astronomy

Sep. 30, 2014 Rise Set
Actual Time 6:43 AM PDT 6:35 PM PDT
Civil Twilight 6:18 AM PDT 7:00 PM PDT
Nautical Twilight 5:49 AM PDT 7:29 PM PDT
Astronomical Twilight 5:20 AM PDT 7:58 PM PDT
Moon 12:43 PM PDT 11:22 PM PDT
Length of Visible Light 12h 41m
Length of Day
11h 51m
Tomorrow will be 2m 5s shorter.
Waxing Crescent, 41% of the Moon is Illuminated
Today
Waxing Crescent
Oct 1
First Quarter
Oct 8
Full
Oct 15
Last Quarter
Oct 23
New

Today's Extremes

State Highs State Lows

Community

WunderPhotos

Upload Photos

1,757,768 photos uploaded!

Nearby

Air Quality

  Air Quality AQ Index Pollutant
Yesterday Good
PM10
Yesterday Good
OZONE
Current Moderate
OZONE
Current Moderate
PM2.5
Wednesday Moderate
PM10
Wednesday Moderate
OZONE
Wednesday Good
CO
Wednesday Good
NO2

Snow Depth

Station Depth Elevation
CSS Lab 1 in 6900 ft
Summit Meadow 0 in 9122 ft
Tahoe City Cross 0 in 6750 ft
Leavitt Meadows 0 in 7200 ft
Adin Mountain 0 in 6200 ft

Earthquake Activity

City Distance Mag. Time & Date
Avalon, California 77 miles 2.6 1:28 PM PDT
2014-09-30
Minimum magnitude displayed is 2.5.

Coastal Water Temperatures

Place Temperature
No Stations Reporting

Nearby Weather Stations